Time;durP1;ratioP1;P1;durP2;ratioP2;P2;SDS_P1;SDS_P2;PMS_P1;PMS_P2;Temp;Humidity;BMP_temperature;BMP_pressure;BME280_temperature;BME280_humidity;BME280_pressure;Samples;Min_cycle;Max_cycle;Signal;HPM_P1;HPM_P2
2023/05/18 00:01:07;;;;;;;6.85;2.00;;;;;;;;;;5031684;28;20037;-74
2023/05/18 00:03:32;;;;;;;6.68;1.73;;;;;;;;;;5031643;28;20034;-74
2023/05/18 00:06:03;;;;;;;10.30;2.20;;;;;;;;;;5023826;28;20033;-74
2023/05/18 00:08:28;;;;;;;7.78;1.55;;;;;;;;;;5031412;28;20508;-74
2023/05/18 00:10:53;;;;;;;11.20;2.90;;;;;;;;;;5031399;28;20025;-74
2023/05/18 00:13:19;;;;;;;9.00;1.77;;;;;;;;;;5028842;28;20045;-74
2023/05/18 00:15:44;;;;;;;7.88;1.88;;;;;;;;;;5027956;28;20026;-74
2023/05/18 00:18:09;;;;;;;11.00;2.28;;;;;;;;;;5030487;28;20128;-74
2023/05/18 00:20:35;;;;;;;7.32;1.67;;;;;;;;;;5031211;28;20065;-74
2023/05/18 00:23:01;;;;;;;5.88;1.75;;;;;;;;;;5031461;28;20124;-73
2023/05/18 00:25:26;;;;;;;6.18;1.60;;;;;;;;;;5031204;28;20083;-74
2023/05/18 00:27:51;;;;;;;7.45;1.98;;;;;;;;;;5030751;28;20107;-74
2023/05/18 00:30:17;;;;;;;6.78;1.52;;;;;;;;;;5026649;28;20091;-74
2023/05/18 00:32:42;;;;;;;9.32;1.88;;;;;;;;;;5029857;28;20046;-74
2023/05/18 00:35:08;;;;;;;8.30;1.88;;;;;;;;;;5029995;28;20048;-74
2023/05/18 00:37:33;;;;;;;11.10;2.40;;;;;;;;;;5027169;28;20037;-74
2023/05/18 00:39:58;;;;;;;5.10;1.38;;;;;;;;;;5029693;28;20032;-74
2023/05/18 00:42:23;;;;;;;9.05;2.10;;;;;;;;;;5027744;28;20040;-74
2023/05/18 00:44:49;;;;;;;9.07;2.00;;;;;;;;;;5031343;28;20025;-74
2023/05/18 00:47:14;;;;;;;11.20;2.05;;;;;;;;;;5030847;28;20516;-74
2023/05/18 00:49:40;;;;;;;8.70;1.52;;;;;;;;;;5030904;28;20164;-74
2023/05/18 00:52:05;;;;;;;7.45;1.45;;;;;;;;;;5031213;28;20033;-74
2023/05/18 00:54:32;;;;;;;6.32;1.55;;;;;;;;;;5023418;28;20026;-74
2023/05/18 00:57:00;;;;;;;11.20;1.77;;;;;;;;;;5031038;28;20017;-74
2023/05/18 00:59:26;;;;;;;8.60;1.92;;;;;;;;;;5027375;28;20025;-74
2023/05/18 01:01:52;;;;;;;6.45;1.35;;;;;;;;;;5028753;28;20065;-74
2023/05/18 01:04:20;;;;;;;7.15;1.80;;;;;;;;;;5030177;28;20069;-74
2023/05/18 01:06:46;;;;;;;6.60;1.70;;;;;;;;;;5025775;28;20546;-74
2023/05/18 01:09:12;;;;;;;6.82;1.88;;;;;;;;;;5030694;28;20052;-74
2023/05/18 01:11:40;;;;;;;9.82;1.77;;;;;;;;;;5030815;28;20123;-73
2023/05/18 01:14:12;;;;;;;10.13;1.63;;;;;;;;;;5024147;28;20026;-74
2023/05/18 01:16:49;;;;;;;9.18;1.52;;;;;;;;;;5024221;28;20037;-74
2023/05/18 01:19:15;;;;;;;5.07;1.45;;;;;;;;;;5027879;28;20051;-74
2023/05/18 01:21:58;;;;;;;8.52;1.98;;;;;;;;;;5029613;28;20112;-74
2023/05/18 01:24:44;;;;;;;7.30;1.35;;;;;;;;;;5030860;28;20116;-74
2023/05/18 01:27:13;;;;;;;9.25;1.58;;;;;;;;;;5029472;28;20488;-74
2023/05/18 01:29:38;;;;;;;7.32;1.83;;;;;;;;;;5029188;28;20041;-74
2023/05/18 01:32:05;;;;;;;7.32;2.13;;;;;;;;;;5030418;28;20030;-74
2023/05/18 01:34:31;;;;;;;6.70;1.40;;;;;;;;;;5029116;28;20033;-74
2023/05/18 01:36:57;;;;;;;9.88;1.83;;;;;;;;;;5030595;28;20033;-74
2023/05/18 01:39:23;;;;;;;7.50;1.63;;;;;;;;;;5030023;28;20113;-73
2023/05/18 01:41:51;;;;;;;6.40;1.95;;;;;;;;;;5034362;28;20033;-74
2023/05/18 01:44:23;;;;;;;8.68;1.27;;;;;;;;;;5033067;28;20065;-74
2023/05/18 01:46:53;;;;;;;7.40;1.42;;;;;;;;;;5034237;28;20076;-74
2023/05/18 01:49:18;;;;;;;8.18;1.73;;;;;;;;;;5029292;28;20488;-74
2023/05/18 01:51:45;;;;;;;6.78;1.40;;;;;;;;;;5032684;28;20064;-74
2023/05/18 01:54:11;;;;;;;9.43;1.63;;;;;;;;;;5032902;28;20021;-74
2023/05/18 01:56:37;;;;;;;10.18;1.88;;;;;;;;;;5032584;28;20037;-74
2023/05/18 01:59:03;;;;;;;9.20;1.63;;;;;;;;;;5030916;28;20033;-74
2023/05/18 02:01:28;;;;;;;6.75;1.45;;;;;;;;;;5032759;28;20037;-74
2023/05/18 02:03:54;;;;;;;6.00;1.48;;;;;;;;;;5034004;28;20049;-74
2023/05/18 02:06:19;;;;;;;7.40;1.25;;;;;;;;;;5032577;28;20033;-74
2023/05/18 02:08:45;;;;;;;5.70;1.55;;;;;;;;;;5033572;28;20087;-74
2023/05/18 02:11:10;;;;;;;6.10;1.35;;;;;;;;;;5033658;28;20120;-74
2023/05/18 02:13:35;;;;;;;7.30;1.33;;;;;;;;;;5032470;28;20032;-74
2023/05/18 02:16:02;;;;;;;6.95;1.27;;;;;;;;;;5030288;28;20025;-74
2023/05/18 02:18:28;;;;;;;9.05;1.65;;;;;;;;;;5033532;28;20031;-74
2023/05/18 02:20:59;;;;;;;6.50;1.45;;;;;;;;;;5031261;28;20025;-74
2023/05/18 02:23:25;;;;;;;6.93;1.40;;;;;;;;;;5030383;28;20026;-74
2023/05/18 02:25:50;;;;;;;8.30;1.40;;;;;;;;;;5033523;28;20040;-74
2023/05/18 02:28:15;;;;;;;9.07;1.95;;;;;;;;;;5028147;28;20159;-74
2023/05/18 02:30:42;;;;;;;6.18;1.23;;;;;;;;;;5028005;28;20079;-74
2023/05/18 02:33:07;;;;;;;10.68;1.33;;;;;;;;;;5032087;28;20065;-74
2023/05/18 02:35:36;;;;;;;6.40;1.20;;;;;;;;;;5032008;28;20032;-74
2023/05/18 02:38:03;;;;;;;6.55;1.35;;;;;;;;;;5049702;23;20057;-79
2023/05/18 02:40:28;;;;;;;6.43;1.40;;;;;;;;;;5050023;28;20028;-79
2023/05/18 02:42:53;;;;;;;6.90;1.30;;;;;;;;;;5017134;28;20064;-78
2023/05/18 02:45:20;;;;;;;8.68;1.40;;;;;;;;;;5027009;28;20503;-78
2023/05/18 02:47:45;;;;;;;6.97;1.55;;;;;;;;;;5036969;28;20037;-79
2023/05/18 02:50:11;;;;;;;5.03;1.10;;;;;;;;;;5016132;28;20748;-79
2023/05/18 02:52:36;;;;;;;11.20;1.60;;;;;;;;;;5033724;28;20140;-79
2023/05/18 02:55:02;;;;;;;10.55;1.40;;;;;;;;;;5020796;28;20030;-79
2023/05/18 02:57:55;;;;;;;5.35;1.10;;;;;;;;;;5023351;28;20109;-78
2023/05/18 03:00:22;;;;;;;7.95;1.50;;;;;;;;;;5034664;28;20044;-79
2023/05/18 03:02:49;;;;;;;5.50;1.10;;;;;;;;;;5016533;28;20047;-79
2023/05/18 03:05:15;;;;;;;7.55;1.33;;;;;;;;;;5015947;28;20034;-78
2023/05/18 03:07:44;;;;;;;4.90;1.50;;;;;;;;;;5004523;28;20038;-78
2023/05/18 03:10:10;;;;;;;7.78;1.45;;;;;;;;;;5024024;28;20051;-78
2023/05/18 03:12:36;;;;;;;7.45;1.42;;;;;;;;;;5035243;28;20065;-79
2023/05/18 03:15:01;;;;;;;6.72;1.38;;;;;;;;;;5020940;28;20690;-78
2023/05/18 03:17:27;;;;;;;9.35;1.45;;;;;;;;;;5016181;28;20022;-78
2023/05/18 03:19:52;;;;;;;7.80;1.40;;;;;;;;;;5019941;28;20025;-78
2023/05/18 03:22:18;;;;;;;6.20;1.42;;;;;;;;;;5020513;28;20038;-79
2023/05/18 03:24:43;;;;;;;4.60;1.30;;;;;;;;;;5019876;28;20714;-79
2023/05/18 03:27:15;;;;;;;7.13;1.60;;;;;;;;;;5019056;28;20117;-79
2023/05/18 03:29:40;;;;;;;9.50;1.70;;;;;;;;;;5020742;28;20030;-78
2023/05/18 03:32:06;;;;;;;6.22;1.50;;;;;;;;;;5036121;28;20045;-79
2023/05/18 03:34:31;;;;;;;11.25;1.75;;;;;;;;;;5017499;28;20040;-78
2023/05/18 03:36:56;;;;;;;14.18;2.00;;;;;;;;;;5008633;28;20029;-79
2023/05/18 03:39:22;;;;;;;5.80;1.40;;;;;;;;;;5017378;28;20036;-79
2023/05/18 03:41:47;;;;;;;9.55;1.40;;;;;;;;;;5038538;28;20464;-78
2023/05/18 03:44:13;;;;;;;7.47;1.50;;;;;;;;;;5017172;28;20048;-78
2023/05/18 03:46:39;;;;;;;9.77;1.92;;;;;;;;;;5019536;28;20480;-79
2023/05/18 03:49:06;;;;;;;5.85;1.50;;;;;;;;;;5001317;28;20037;-78
2023/05/18 03:51:36;;;;;;;6.25;1.13;;;;;;;;;;5004873;28;20033;-78
2023/05/18 03:54:02;;;;;;;8.75;1.73;;;;;;;;;;5021114;28;20029;-78
2023/05/18 03:56:29;;;;;;;7.30;1.58;;;;;;;;;;5017659;28;20034;-78
2023/05/18 03:58:57;;;;;;;7.47;1.52;;;;;;;;;;5016315;28;20029;-78
2023/05/18 04:01:23;;;;;;;7.75;1.65;;;;;;;;;;5019568;28;20026;-78
2023/05/18 04:03:49;;;;;;;7.18;1.60;;;;;;;;;;5032364;28;20085;-78
2023/05/18 04:06:15;;;;;;;5.40;1.17;;;;;;;;;;5036788;28;20565;-78
2023/05/18 04:08:41;;;;;;;9.07;1.80;;;;;;;;;;5036591;28;20034;-77
2023/05/18 04:11:06;;;;;;;6.47;1.65;;;;;;;;;;5025338;28;20052;-78
2023/05/18 04:13:31;;;;;;;5.32;1.25;;;;;;;;;;5024166;28;20037;-78
2023/05/18 04:15:57;;;;;;;5.68;1.45;;;;;;;;;;5034657;28;20034;-78
2023/05/18 04:18:22;;;;;;;7.53;1.38;;;;;;;;;;5001434;28;20035;-78
2023/05/18 04:20:48;;;;;;;9.05;2.28;;;;;;;;;;5037202;28;20045;-78
2023/05/18 04:23:14;;;;;;;8.10;1.48;;;;;;;;;;5009473;28;20455;-78
2023/05/18 04:25:40;;;;;;;7.63;1.50;;;;;;;;;;5017834;28;20028;-78
2023/05/18 04:28:06;;;;;;;5.65;1.17;;;;;;;;;;5001959;28;20030;-78
2023/05/18 04:30:32;;;;;;;6.18;1.80;;;;;;;;;;5019630;28;20101;-78
2023/05/18 04:32:58;;;;;;;6.72;1.58;;;;;;;;;;5037785;28;20060;-78
2023/05/18 04:35:26;;;;;;;6.47;1.30;;;;;;;;;;5003998;28;20475;-78
2023/05/18 04:37:51;;;;;;;9.35;1.63;;;;;;;;;;5017265;28;20040;-78
2023/05/18 04:40:17;;;;;;;13.30;1.73;;;;;;;;;;5022324;28;20097;-77
2023/05/18 04:42:46;;;;;;;6.50;1.30;;;;;;;;;;5019348;28;20052;-78
2023/05/18 04:45:16;;;;;;;9.90;1.70;;;;;;;;;;5028368;28;20496;-78
2023/05/18 04:47:46;;;;;;;7.95;2.00;;;;;;;;;;5017162;28;20033;-78
2023/05/18 04:50:13;;;;;;;8.65;1.60;;;;;;;;;;5037394;28;20042;-78
2023/05/18 04:52:40;;;;;;;8.95;1.45;;;;;;;;;;5017555;28;20030;-78
2023/05/18 04:55:09;;;;;;;6.20;1.45;;;;;;;;;;5006801;28;20041;-78
2023/05/18 04:57:35;;;;;;;4.65;1.33;;;;;;;;;;5018480;28;20026;-78
2023/05/18 05:00:04;;;;;;;7.15;1.63;;;;;;;;;;5020096;28;20036;-78
2023/05/18 05:02:31;;;;;;;7.75;1.67;;;;;;;;;;5003524;28;20041;-78
2023/05/18 05:04:56;;;;;;;6.40;1.42;;;;;;;;;;5035321;28;20034;-78
2023/05/18 05:07:21;;;;;;;5.82;1.00;;;;;;;;;;5020003;28;20033;-78
2023/05/18 05:09:47;;;;;;;7.03;1.48;;;;;;;;;;5019092;28;20041;-78
2023/05/18 05:12:12;;;;;;;7.07;1.52;;;;;;;;;;5034492;28;20030;-78
2023/05/18 05:14:37;;;;;;;7.80;2.03;;;;;;;;;;5008735;28;20034;-78
2023/05/18 05:17:02;;;;;;;7.22;1.30;;;;;;;;;;5043573;28;20026;-78
2023/05/18 05:19:28;;;;;;;7.25;1.40;;;;;;;;;;5024543;28;20026;-78
2023/05/18 05:21:53;;;;;;;5.45;1.60;;;;;;;;;;5020503;28;20026;-78
2023/05/18 05:24:18;;;;;;;9.18;1.70;;;;;;;;;;5022797;28;20031;-78
2023/05/18 05:26:44;;;;;;;9.25;2.15;;;;;;;;;;5020128;28;20030;-78
2023/05/18 05:29:09;;;;;;;6.78;1.30;;;;;;;;;;5025283;28;20026;-78
2023/05/18 05:31:35;;;;;;;7.35;1.63;;;;;;;;;;5026690;28;20030;-78
2023/05/18 05:34:00;;;;;;;7.13;1.50;;;;;;;;;;5036873;28;20026;-79
2023/05/18 05:36:26;;;;;;;7.97;1.75;;;;;;;;;;5023356;28;20025;-79
2023/05/18 05:38:51;;;;;;;7.90;1.73;;;;;;;;;;5021459;28;20026;-78
2023/05/18 05:41:17;;;;;;;7.38;1.60;;;;;;;;;;5023106;28;20033;-77
2023/05/18 05:43:42;;;;;;;7.32;1.23;;;;;;;;;;5019590;28;20034;-78
2023/05/18 05:46:07;;;;;;;7.22;1.55;;;;;;;;;;5022955;28;20097;-79
2023/05/18 05:48:32;;;;;;;7.85;1.30;;;;;;;;;;5022593;28;20026;-78
2023/05/18 05:50:58;;;;;;;6.15;1.27;;;;;;;;;;5025765;28;20025;-79
2023/05/18 05:53:26;;;;;;;8.70;1.50;;;;;;;;;;5018887;28;20025;-79
2023/05/18 05:55:51;;;;;;;9.73;1.67;;;;;;;;;;5021388;28;20025;-79
2023/05/18 05:58:17;;;;;;;7.38;1.60;;;;;;;;;;5020458;28;20037;-79
2023/05/18 06:00:49;;;;;;;6.68;1.45;;;;;;;;;;5020145;28;20065;-78
2023/05/18 06:03:15;;;;;;;6.40;1.45;;;;;;;;;;5020962;28;20037;-78
2023/05/18 06:05:43;;;;;;;4.45;1.02;;;;;;;;;;5022555;28;20029;-79
2023/05/18 06:08:11;;;;;;;6.78;1.50;;;;;;;;;;5022107;28;20522;-78
2023/05/18 06:10:38;;;;;;;5.05;1.80;;;;;;;;;;5019044;28;20030;-78
2023/05/18 06:13:03;;;;;;;11.57;1.95;;;;;;;;;;5021925;28;20038;-78
2023/05/18 06:15:39;;;;;;;6.38;1.67;;;;;;;;;;5021981;28;20045;-77
2023/05/18 06:18:04;;;;;;;6.43;1.70;;;;;;;;;;5003146;28;20026;-78
2023/05/18 06:20:29;;;;;;;5.85;1.50;;;;;;;;;;5004737;28;20120;-78
2023/05/18 06:22:55;;;;;;;12.02;1.92;;;;;;;;;;5019223;28;20056;-79
2023/05/18 06:25:43;;;;;;;5.45;1.60;;;;;;;;;;5017462;28;20030;-78
2023/05/18 06:28:21;;;;;;;6.72;1.63;;;;;;;;;;5020935;28;20087;-78
2023/05/18 06:30:52;;;;;;;8.27;1.63;;;;;;;;;;5018482;28;20026;-79
2023/05/18 06:33:22;;;;;;;7.15;1.40;;;;;;;;;;5021476;28;20040;-78
2023/05/18 06:35:47;;;;;;;6.68;1.88;;;;;;;;;;5021206;28;20036;-78
2023/05/18 06:38:12;;;;;;;7.82;1.55;;;;;;;;;;5019365;28;20034;-78
2023/05/18 06:40:38;;;;;;;7.50;2.03;;;;;;;;;;5021119;28;20100;-79
2023/05/18 06:43:03;;;;;;;8.50;1.35;;;;;;;;;;5018181;28;20060;-79
2023/05/18 06:45:41;;;;;;;7.40;1.60;;;;;;;;;;5022791;28;20056;-78
2023/05/18 06:48:13;;;;;;;5.28;1.70;;;;;;;;;;5018965;28;20034;-78
2023/05/18 06:50:39;;;;;;;7.22;1.40;;;;;;;;;;5019889;28;20031;-78
2023/05/18 06:53:05;;;;;;;4.38;1.10;;;;;;;;;;5021953;28;20499;-79
2023/05/18 06:55:30;;;;;;;7.05;1.67;;;;;;;;;;5018042;28;20026;-78
2023/05/18 06:57:57;;;;;;;10.88;1.42;;;;;;;;;;5021180;28;20475;-79
2023/05/18 07:00:22;;;;;;;6.78;1.50;;;;;;;;;;5021387;28;20025;-79
2023/05/18 07:02:48;;;;;;;8.25;1.67;;;;;;;;;;5021558;28;20087;-78
2023/05/18 07:05:15;;;;;;;6.10;1.20;;;;;;;;;;5001668;28;20104;-79
2023/05/18 07:07:41;;;;;;;4.78;1.48;;;;;;;;;;5040226;28;20040;-79
2023/05/18 07:10:06;;;;;;;4.93;1.38;;;;;;;;;;5037201;28;20038;-78
2023/05/18 07:12:31;;;;;;;8.98;1.40;;;;;;;;;;5019893;28;20033;-78
2023/05/18 07:14:57;;;;;;;6.72;1.63;;;;;;;;;;5016290;28;20042;-79
2023/05/18 07:17:22;;;;;;;8.35;1.30;;;;;;;;;;5038021;28;20037;-79
2023/05/18 07:19:47;;;;;;;5.78;1.33;;;;;;;;;;5038261;28;20029;-79
2023/05/18 07:22:12;;;;;;;9.07;1.98;;;;;;;;;;5016788;28;20064;-79
2023/05/18 07:24:37;;;;;;;6.60;1.30;;;;;;;;;;5036975;28;20400;-78
2023/05/18 07:27:03;;;;;;;9.77;2.38;;;;;;;;;;5033233;28;20038;-79
2023/05/18 07:29:28;;;;;;;8.52;1.52;;;;;;;;;;5037804;28;20034;-79
2023/05/18 07:31:54;;;;;;;6.20;1.10;;;;;;;;;;5041209;28;20053;-79
2023/05/18 07:34:19;;;;;;;7.72;1.98;;;;;;;;;;5035950;28;20021;-78
2023/05/18 07:36:44;;;;;;;6.40;1.70;;;;;;;;;;5033003;28;20494;-78
2023/05/18 07:39:17;;;;;;;10.43;1.42;;;;;;;;;;5033687;28;20040;-79
2023/05/18 07:41:42;;;;;;;6.22;1.55;;;;;;;;;;5036537;28;20040;-78
2023/05/18 07:44:07;;;;;;;7.68;1.70;;;;;;;;;;5034075;28;20029;-79
2023/05/18 07:46:32;;;;;;;6.90;1.33;;;;;;;;;;5016942;28;20046;-79
2023/05/18 07:48:57;;;;;;;8.23;1.42;;;;;;;;;;5031580;28;20041;-78
2023/05/18 07:51:23;;;;;;;5.35;1.42;;;;;;;;;;5031563;28;20030;-78
2023/05/18 07:53:48;;;;;;;6.07;1.58;;;;;;;;;;5033538;28;20424;-78
2023/05/18 07:56:13;;;;;;;8.80;1.83;;;;;;;;;;5030586;28;20040;-79
2023/05/18 07:58:39;;;;;;;7.10;1.55;;;;;;;;;;5033456;28;20047;-77
2023/05/18 08:01:04;;;;;;;8.82;1.70;;;;;;;;;;5030798;28;20056;-78
2023/05/18 08:03:29;;;;;;;4.13;1.10;;;;;;;;;;5032003;28;20041;-78
2023/05/18 08:05:55;;;;;;;6.72;1.85;;;;;;;;;;5034858;28;20401;-79
2023/05/18 08:08:20;;;;;;;5.03;1.13;;;;;;;;;;5028721;28;20171;-78
2023/05/18 08:10:45;;;;;;;8.30;1.77;;;;;;;;;;5034484;28;20037;-78
2023/05/18 08:13:11;;;;;;;7.10;1.50;;;;;;;;;;5030327;28;20045;-79
2023/05/18 08:15:37;;;;;;;9.32;1.30;;;;;;;;;;5032763;28;20030;-78
2023/05/18 08:18:03;;;;;;;9.20;1.63;;;;;;;;;;5030807;28;20029;-79
2023/05/18 08:20:31;;;;;;;4.95;0.88;;;;;;;;;;5029070;28;20097;-79
2023/05/18 08:22:56;;;;;;;4.40;1.10;;;;;;;;;;5014599;28;20026;-79
2023/05/18 08:25:21;;;;;;;7.80;1.55;;;;;;;;;;5033329;28;20105;-78
2023/05/18 08:27:47;;;;;;;6.28;1.40;;;;;;;;;;5028485;28;20086;-78
2023/05/18 08:30:12;;;;;;;6.05;1.30;;;;;;;;;;5031482;28;20033;-79
2023/05/18 08:32:37;;;;;;;6.18;1.33;;;;;;;;;;5032804;28;20036;-78
2023/05/18 08:35:07;;;;;;;5.90;1.10;;;;;;;;;;5028922;28;20022;-78
2023/05/18 08:37:32;;;;;;;8.60;2.17;;;;;;;;;;5027624;28;20038;-79
2023/05/18 08:39:58;;;;;;;6.35;1.42;;;;;;;;;;5042030;23;20100;-77
2023/05/18 08:43:02;;;;;;;3.83;1.15;;;;;;;;;;5022696;28;20053;-77
2023/05/18 08:45:31;;;;;;;9.05;1.90;;;;;;;;;;4962325;28;20147;-77
2023/05/18 08:47:58;;;;;;;8.32;1.75;;;;;;;;;;4949072;28;20067;-77
2023/05/18 08:50:25;;;;;;;6.75;1.40;;;;;;;;;;4975796;28;20130;-77
2023/05/18 08:52:53;;;;;;;6.95;1.48;;;;;;;;;;5002724;28;20084;-77
2023/05/18 08:55:18;;;;;;;6.13;1.92;;;;;;;;;;5000089;28;20026;-76
2023/05/18 08:57:48;;;;;;;7.07;1.30;;;;;;;;;;5003373;28;20026;-77
2023/05/18 09:00:14;;;;;;;6.85;1.10;;;;;;;;;;5003618;28;20042;-76
2023/05/18 09:02:40;;;;;;;8.43;1.77;;;;;;;;;;5002926;28;20033;-77
2023/05/18 09:05:06;;;;;;;8.65;1.98;;;;;;;;;;5002929;28;20038;-77
2023/05/18 09:07:31;;;;;;;5.72;1.80;;;;;;;;;;5002572;28;20048;-77
2023/05/18 09:09:56;;;;;;;4.32;1.08;;;;;;;;;;5000357;28;20077;-77
2023/05/18 09:12:22;;;;;;;7.68;1.83;;;;;;;;;;5002339;28;20030;-77
2023/05/18 09:14:47;;;;;;;5.20;1.30;;;;;;;;;;5007831;28;20516;-77
2023/05/18 09:17:12;;;;;;;5.15;1.25;;;;;;;;;;5004425;28;20041;-77
2023/05/18 09:19:38;;;;;;;3.72;1.02;;;;;;;;;;5003007;28;20034;-77
2023/05/18 09:22:03;;;;;;;4.57;1.15;;;;;;;;;;5000973;28;20030;-77
2023/05/18 09:24:28;;;;;;;7.82;1.20;;;;;;;;;;5001989;28;20061;-77
2023/05/18 09:26:53;;;;;;;8.25;2.03;;;;;;;;;;5000589;28;20037;-77
2023/05/18 09:29:19;;;;;;;5.05;1.15;;;;;;;;;;5002845;28;20042;-77
2023/05/18 09:31:45;;;;;;;5.32;1.30;;;;;;;;;;5003947;28;20030;-77
2023/05/18 09:34:11;;;;;;;3.80;1.10;;;;;;;;;;5001524;28;20053;-77
2023/05/18 09:36:36;;;;;;;8.20;2.15;;;;;;;;;;5001074;28;20492;-77
2023/05/18 09:39:06;;;;;;;6.47;1.33;;;;;;;;;;5001033;28;20392;-76
2023/05/18 09:41:31;;;;;;;5.60;1.05;;;;;;;;;;5001609;28;20038;-77
2023/05/18 09:43:56;;;;;;;5.38;1.20;;;;;;;;;;5003960;28;20392;-79
2023/05/18 09:46:21;;;;;;;8.48;1.73;;;;;;;;;;5005559;28;20445;-77
2023/05/18 09:48:51;;;;;;;6.03;2.00;;;;;;;;;;5006440;28;20116;-77
2023/05/18 09:51:17;;;;;;;5.43;1.40;;;;;;;;;;4999716;28;20039;-77
2023/05/18 09:53:46;;;;;;;8.85;1.75;;;;;;;;;;5018121;28;20038;-78
2023/05/18 09:56:13;;;;;;;4.30;1.20;;;;;;;;;;5002947;28;20081;-78
2023/05/18 09:58:39;;;;;;;5.95;1.25;;;;;;;;;;5022455;28;20025;-78
2023/05/18 10:01:04;;;;;;;6.40;1.55;;;;;;;;;;5002943;28;20031;-76
2023/05/18 10:03:31;;;;;;;5.75;1.13;;;;;;;;;;5005926;28;20049;-77
2023/05/18 10:06:00;;;;;;;6.25;1.40;;;;;;;;;;5006072;28;20061;-77
2023/05/18 10:08:25;;;;;;;5.15;1.10;;;;;;;;;;5004941;28;20096;-77
2023/05/18 10:10:50;;;;;;;5.18;1.13;;;;;;;;;;5018583;28;20443;-77
2023/05/18 10:13:19;;;;;;;6.45;1.48;;;;;;;;;;5006182;28;20450;-78
2023/05/18 10:15:45;;;;;;;5.28;1.05;;;;;;;;;;5008001;28;20033;-77
2023/05/18 10:18:11;;;;;;;6.57;1.30;;;;;;;;;;5004502;28;20089;-77
2023/05/18 10:20:36;;;;;;;4.28;1.10;;;;;;;;;;5003517;28;20034;-77
2023/05/18 10:23:04;;;;;;;6.90;1.42;;;;;;;;;;5004584;28;20053;-77
2023/05/18 10:25:29;;;;;;;4.93;1.10;;;;;;;;;;5002170;28;20035;-77
2023/05/18 10:27:55;;;;;;;6.10;1.73;;;;;;;;;;5021080;28;20041;-77
2023/05/18 10:30:21;;;;;;;4.30;1.20;;;;;;;;;;5004807;28;20056;-78
2023/05/18 10:32:47;;;;;;;6.53;1.23;;;;;;;;;;5005005;28;20026;-77
2023/05/18 10:35:12;;;;;;;5.93;1.33;;;;;;;;;;5003984;28;20519;-78
2023/05/18 10:37:38;;;;;;;5.68;1.20;;;;;;;;;;5005736;28;20029;-78
2023/05/18 10:40:05;;;;;;;7.13;1.30;;;;;;;;;;5001879;28;20046;-77
2023/05/18 10:42:31;;;;;;;6.85;1.50;;;;;;;;;;5004235;28;20042;-77
2023/05/18 10:44:56;;;;;;;6.43;1.48;;;;;;;;;;5001889;28;20039;-77
2023/05/18 10:47:26;;;;;;;4.10;1.38;;;;;;;;;;5009551;28;20033;-77
2023/05/18 10:49:51;;;;;;;6.68;1.52;;;;;;;;;;5005182;28;20057;-77
2023/05/18 10:52:16;;;;;;;4.67;1.33;;;;;;;;;;5002081;28;20554;-78
2023/05/18 10:54:42;;;;;;;2.90;0.93;;;;;;;;;;5004717;28;20368;-78
2023/05/18 10:57:10;;;;;;;5.97;1.38;;;;;;;;;;5002507;28;20026;-77
2023/05/18 10:59:38;;;;;;;4.88;1.40;;;;;;;;;;5021956;28;20033;-78
2023/05/18 11:02:04;;;;;;;4.18;1.30;;;;;;;;;;5005455;28;20034;-78
2023/05/18 11:04:30;;;;;;;6.38;1.40;;;;;;;;;;5002557;28;20034;-78
2023/05/18 11:06:56;;;;;;;5.70;1.40;;;;;;;;;;5002412;28;20034;-77
2023/05/18 11:09:23;;;;;;;4.88;1.20;;;;;;;;;;5003373;28;20041;-77
2023/05/18 11:11:49;;;;;;;7.78;1.38;;;;;;;;;;5005810;28;20026;-78
2023/05/18 11:14:23;;;;;;;4.60;1.20;;;;;;;;;;5002529;28;20202;-78
2023/05/18 11:16:48;;;;;;;4.82;1.65;;;;;;;;;;5005055;28;20452;-78
2023/05/18 11:19:13;;;;;;;7.35;1.48;;;;;;;;;;5004759;28;20022;-77
2023/05/18 11:21:40;;;;;;;5.43;1.50;;;;;;;;;;5004905;28;20041;-77
2023/05/18 11:24:24;;;;;;;3.95;1.02;;;;;;;;;;5004670;28;20072;-77
2023/05/18 11:26:57;;;;;;;4.50;1.02;;;;;;;;;;5003923;28;20524;-78
2023/05/18 11:29:30;;;;;;;7.88;1.45;;;;;;;;;;5022632;28;20399;-78
2023/05/18 11:31:56;;;;;;;6.25;1.38;;;;;;;;;;5017310;28;20096;-77
2023/05/18 11:34:34;;;;;;;5.07;1.15;;;;;;;;;;5006629;28;20029;-78
2023/05/18 11:37:00;;;;;;;3.55;1.10;;;;;;;;;;5003971;28;20120;-78
2023/05/18 11:39:26;;;;;;;4.40;1.45;;;;;;;;;;5001012;28;20134;-78
2023/05/18 11:42:18;;;;;;;5.07;1.40;;;;;;;;;;5019348;28;20464;-78
2023/05/18 11:44:50;;;;;;;7.22;1.55;;;;;;;;;;5017388;28;20046;-78
2023/05/18 11:47:17;;;;;;;4.18;1.20;;;;;;;;;;5008103;28;20026;-77
2023/05/18 11:49:45;;;;;;;4.22;1.05;;;;;;;;;;5000856;28;20034;-78
2023/05/18 11:52:11;;;;;;;6.30;1.40;;;;;;;;;;5003407;28;20038;-78
2023/05/18 11:54:49;;;;;;;4.77;1.47;;;;;;;;;;5002017;28;20088;-78
2023/05/18 11:57:16;;;;;;;5.38;1.38;;;;;;;;;;5003850;28;20089;-78
2023/05/18 11:59:45;;;;;;;5.35;1.55;;;;;;;;;;5005681;28;20117;-78
2023/05/18 12:02:11;;;;;;;6.78;1.60;;;;;;;;;;5005778;28;20026;-78
2023/05/18 12:04:53;;;;;;;6.40;1.80;;;;;;;;;;5007182;28;20551;-78
2023/05/18 12:07:19;;;;;;;3.88;1.13;;;;;;;;;;5002385;28;20036;-78
2023/05/18 12:09:45;;;;;;;6.53;1.52;;;;;;;;;;5002515;28;20217;-78
2023/05/18 12:12:12;;;;;;;3.75;1.00;;;;;;;;;;5016521;28;20403;-78
2023/05/18 12:14:41;;;;;;;5.55;1.20;;;;;;;;;;5003140;28;20022;-77
2023/05/18 12:17:06;;;;;;;3.58;1.30;;;;;;;;;;5004013;28;20479;-78
2023/05/18 12:19:44;;;;;;;3.50;1.00;;;;;;;;;;5000158;28;20034;-79
2023/05/18 12:22:12;;;;;;;9.02;1.60;;;;;;;;;;5021108;28;20134;-78
2023/05/18 12:24:38;;;;;;;5.03;1.58;;;;;;;;;;5002169;28;20038;-77
2023/05/18 12:27:05;;;;;;;5.88;1.30;;;;;;;;;;5001948;28;20117;-78
2023/05/18 12:29:31;;;;;;;2.92;1.00;;;;;;;;;;5005136;28;20101;-78
2023/05/18 12:31:56;;;;;;;3.90;1.15;;;;;;;;;;5001443;28;20552;-78
2023/05/18 12:34:26;;;;;;;5.05;1.52;;;;;;;;;;5002351;28;20109;-78
2023/05/18 12:36:52;;;;;;;3.25;1.23;;;;;;;;;;5002119;28;20080;-78
2023/05/18 12:39:17;;;;;;;5.57;1.60;;;;;;;;;;5003843;28;20099;-78
2023/05/18 12:41:43;;;;;;;5.80;1.45;;;;;;;;;;5000468;28;20451;-78
2023/05/18 12:44:08;;;;;;;4.65;1.15;;;;;;;;;;5001928;28;20507;-79
2023/05/18 12:46:33;;;;;;;4.95;1.42;;;;;;;;;;5000213;28;20022;-78
2023/05/18 12:49:00;;;;;;;4.70;1.25;;;;;;;;;;5009638;28;20120;-77
2023/05/18 12:51:31;;;;;;;6.15;1.35;;;;;;;;;;5004750;28;20133;-78
2023/05/18 12:53:56;;;;;;;4.90;1.50;;;;;;;;;;5004936;28;20381;-79
2023/05/18 12:56:24;;;;;;;6.13;1.60;;;;;;;;;;5002839;28;20129;-78
2023/05/18 12:58:58;;;;;;;4.60;1.20;;;;;;;;;;5003267;28;20117;-78
2023/05/18 13:01:24;;;;;;;3.60;1.27;;;;;;;;;;5003483;28;20026;-78
2023/05/18 13:03:58;;;;;;;4.60;1.20;;;;;;;;;;5002227;28;20041;-78
2023/05/18 13:06:24;;;;;;;7.82;1.80;;;;;;;;;;4999626;28;20042;-78
2023/05/18 13:08:52;;;;;;;5.75;1.50;;;;;;;;;;4999357;28;20045;-78
2023/05/18 13:11:17;;;;;;;5.53;1.65;;;;;;;;;;5003628;28;20042;-78
2023/05/18 13:14:02;;;;;;;3.85;1.80;;;;;;;;;;5003342;28;20030;-78
2023/05/18 13:16:28;;;;;;;6.57;1.50;;;;;;;;;;5000192;28;20136;-79
2023/05/18 13:18:54;;;;;;;6.43;1.40;;;;;;;;;;5002624;28;20032;-78
2023/05/18 13:21:19;;;;;;;4.47;1.30;;;;;;;;;;4999742;28;20117;-78
2023/05/18 13:23:45;;;;;;;4.60;1.70;;;;;;;;;;5003039;28;20511;-79
2023/05/18 13:26:10;;;;;;;5.63;1.67;;;;;;;;;;5000824;28;20787;-78
2023/05/18 13:28:36;;;;;;;4.20;1.30;;;;;;;;;;5002503;28;20276;-78
2023/05/18 13:31:01;;;;;;;3.00;1.25;;;;;;;;;;4999093;28;20030;-79
2023/05/18 13:33:26;;;;;;;3.47;1.15;;;;;;;;;;5000318;28;20038;-78
2023/05/18 13:35:52;;;;;;;4.70;1.30;;;;;;;;;;5006938;28;20033;-79
2023/05/18 13:38:17;;;;;;;5.20;1.55;;;;;;;;;;5011264;28;20758;-79
2023/05/18 13:40:42;;;;;;;5.40;1.87;;;;;;;;;;5006354;28;20041;-79
2023/05/18 13:43:07;;;;;;;5.50;1.73;;;;;;;;;;5006562;28;20375;-79
2023/05/18 13:45:36;;;;;;;5.22;1.70;;;;;;;;;;5003225;28;20129;-79
2023/05/18 13:48:05;;;;;;;4.55;1.70;;;;;;;;;;5005970;28;20037;-79
2023/05/18 13:50:31;;;;;;;4.07;1.60;;;;;;;;;;5004237;28;20434;-79
2023/05/18 13:52:56;;;;;;;6.32;1.75;;;;;;;;;;5005277;28;20038;-79
2023/05/18 13:55:21;;;;;;;4.43;1.80;;;;;;;;;;5006682;28;20026;-79
2023/05/18 13:57:47;;;;;;;6.13;1.75;;;;;;;;;;5004310;28;20305;-78
2023/05/18 14:00:12;;;;;;;5.27;1.40;;;;;;;;;;5007738;28;20030;-78
2023/05/18 14:02:41;;;;;;;6.15;1.65;;;;;;;;;;5004594;28;20034;-79
2023/05/18 14:05:07;;;;;;;7.15;1.10;;;;;;;;;;5004951;28;20037;-79
2023/05/18 14:07:33;;;;;;;5.90;1.30;;;;;;;;;;5003888;28;20026;-78
2023/05/18 14:09:58;;;;;;;4.93;1.42;;;;;;;;;;5012141;28;20387;-79
2023/05/18 14:12:24;;;;;;;5.43;1.40;;;;;;;;;;5003580;28;20585;-79
2023/05/18 14:14:49;;;;;;;6.55;1.63;;;;;;;;;;5020348;28;20034;-78
2023/05/18 14:17:14;;;;;;;5.90;1.40;;;;;;;;;;5003493;28;20108;-78
2023/05/18 14:19:39;;;;;;;4.87;1.43;;;;;;;;;;5005907;28;20117;-79
2023/05/18 14:22:05;;;;;;;5.13;1.48;;;;;;;;;;5008978;28;20384;-78
2023/05/18 14:24:30;;;;;;;5.47;1.65;;;;;;;;;;5006119;28;20040;-79
2023/05/18 14:26:55;;;;;;;4.65;1.33;;;;;;;;;;5009417;28;20029;-78
2023/05/18 14:29:20;;;;;;;4.13;1.30;;;;;;;;;;5005680;28;20436;-79
2023/05/18 14:31:46;;;;;;;4.90;1.23;;;;;;;;;;5004081;28;20034;-78
2023/05/18 14:34:11;;;;;;;3.58;1.23;;;;;;;;;;5002752;28;20285;-79
2023/05/18 14:36:36;;;;;;;5.57;1.50;;;;;;;;;;5008999;28;20065;-78
2023/05/18 14:39:02;;;;;;;5.80;1.37;;;;;;;;;;5007920;28;20272;-78
2023/05/18 14:41:27;;;;;;;5.63;1.95;;;;;;;;;;5008275;28;20323;-78